Time;durP1;ratioP1;P1;durP2;ratioP2;P2;SDS_P1;SDS_P2;PMS_P1;PMS_P2;Temp;Humidity;BMP_temperature;BMP_pressure;BME280_temperature;BME280_humidity;BME280_pressure;Samples;Min_cycle;Max_cycle;Signal;HPM_P1;HPM_P2
2024/03/30 00:00:05;;;;;;;;;;;;;;;;;;412593;24;982;-82
2024/03/30 00:00:15;;;;;;;;;;;;;;;;;;410499;24;1251;-82
2024/03/30 00:00:26;;;;;;;;;;;;;;;;;;412363;24;1173;-82
2024/03/30 00:00:36;;;;;;;;;;;;;;;;;;414349;23;1179;-82
2024/03/30 00:00:46;;;;;;;;;;;;;;;;;;416470;23;947;-82
2024/03/30 00:00:58;;;;;;;;;;;;;;;;;;414411;23;1319;-82
2024/03/30 00:01:08;;;;;;;;;;;;;;;;;;414450;23;1050;-82
2024/03/30 00:01:19;;;;;;;;;;;;;;;;;;416424;23;970;-82
2024/03/30 00:01:29;;;;;;;;;;;;;;;;;;418446;23;1638;-82
2024/03/30 00:01:39;;;;;;;;;;;;;;;;;;418410;23;990;-82
2024/03/30 00:01:49;;;;;;;;;;;;;;;;;;416398;23;1264;-82
2024/03/30 00:02:00;;;;;;;;;;;;;;;;;;418315;23;1006;-82
2024/03/30 00:02:10;;;;;;;;;;;;;;;;;;418385;23;923;-82
2024/03/30 00:02:20;;;;;;;;;;;;;;;;;;418490;23;1260;-83
2024/03/30 00:02:30;;;;;;;;;;;;;;;;;;418426;23;938;-82
2024/03/30 00:02:41;;;;;;;;;;;;;;;;;;418428;23;808;-82
2024/03/30 00:02:51;;;;;;;;;;;;;;;;;;416368;23;970;-82
2024/03/30 00:03:01;;;;;;;;;;;;;;;;;;414581;23;828;-82
2024/03/30 00:03:12;;;;;;;;;;;;;;;;;;416444;23;1045;-82
2024/03/30 00:03:22;;;;;;;;;;;;;;;;;;414391;23;1161;-82
2024/03/30 00:03:33;;;;;;;;;;;;;;;;;;418348;23;1652;-82
2024/03/30 00:03:43;;;;;;;;;;;;;;;;;;416466;23;1163;-82
2024/03/30 00:03:53;;;;;;;;;;;;;;;;;;414393;23;967;-82
2024/03/30 00:04:03;;;;;;;;;;;;;;;;;;416361;23;1398;-82
2024/03/30 00:04:14;;;;;;;;;;;;;;;;;;414387;23;1188;-82
2024/03/30 00:04:24;;;;;;;;;;;;;;;;;;418348;23;1238;-82
2024/03/30 00:04:34;;;;;;;;;;;;;;;;;;416449;23;943;-82
2024/03/30 00:04:44;;;;;;;;;;;;;;;;;;414369;23;1253;-82
2024/03/30 00:04:55;;;;;;;;;;;;;;;;;;412170;24;634;-82
2024/03/30 00:05:05;;;;;;;;;;;;;;;;;;414495;23;1203;-82
2024/03/30 00:05:15;;;;;;;;;;;;;;;;;;414581;23;935;-82
2024/03/30 00:05:25;;;;;;;;;;;;;;;;;;414613;23;773;-82
2024/03/30 00:05:35;;;;;;;;;;;;;;;;;;414533;23;947;-82
2024/03/30 00:05:46;;;;;;;;;;;;;;;;;;414657;23;1046;-82
2024/03/30 00:05:59;;;;;;;;;;;;;;;;;;416549;23;868;-82
2024/03/30 00:06:10;;;;;;;;;;;;;;;;;;418520;23;1501;-82
2024/03/30 00:06:20;;;;;;;;;;;;;;;;;;416580;23;978;-82
2024/03/30 00:06:30;;;;;;;;;;;;;;;;;;418453;23;1398;-82
2024/03/30 00:06:40;;;;;;;;;;;;;;;;;;418505;23;1336;-82
2024/03/30 00:06:51;;;;;;;;;;;;;;;;;;418585;23;824;-82
2024/03/30 00:07:01;;;;;;;;;;;;;;;;;;418600;23;824;-82
2024/03/30 00:07:11;;;;;;;;;;;;;;;;;;418559;23;793;-82
2024/03/30 00:07:22;;;;;;;;;;;;;;;;;;418536;23;919;-82
2024/03/30 00:07:33;;;;;;;;;;;;;;;;;;418644;23;923;-82
2024/03/30 00:07:44;;;;;;;;;;;;;;;;;;416513;23;939;-82
2024/03/30 00:07:54;;;;;;;;;;;;;;;;;;416605;23;942;-82
2024/03/30 00:08:06;;;;;;;;;;;;;;;;;;418424;23;1919;-82
2024/03/30 00:08:16;;;;;;;;;;;;;;;;;;418636;23;914;-82
2024/03/30 00:08:26;;;;;;;;;;;;;;;;;;416606;23;812;-82
2024/03/30 00:08:36;;;;;;;;;;;;;;;;;;418555;23;1005;-82
2024/03/30 00:08:46;;;;;;;;;;;;;;;;;;418589;23;942;-82
2024/03/30 00:08:57;;;;;;;;;;;;;;;;;;416627;23;1451;-82
2024/03/30 00:09:07;;;;;;;;;;;;;;;;;;416545;23;966;-82
2024/03/30 00:09:17;;;;;;;;;;;;;;;;;;416399;23;1202;-82
2024/03/30 00:09:27;;;;;;;;;;;;;;;;;;418456;23;1212;-82
2024/03/30 00:09:38;;;;;;;;;;;;;;;;;;420589;23;1021;-82
2024/03/30 00:09:49;;;;;;;;;;;;;;;;;;418504;23;1271;-82
2024/03/30 00:09:59;;;;;;;;;;;;;;;;;;414713;23;813;-82
2024/03/30 00:10:09;;;;;;;;;;;;;;;;;;416411;23;1266;-82
2024/03/30 00:10:19;;;;;;;;;;;;;;;;;;416553;23;927;-82
2024/03/30 00:10:30;;;;;;;;;;;;;;;;;;414638;23;828;-82
2024/03/30 00:10:40;;;;;;;;;;;;;;;;;;416301;23;1195;-82
2024/03/30 00:10:57;;;;;;;;;;;;;;;;;;418436;23;998;-82
2024/03/30 00:11:07;;;;;;;;;;;;;;;;;;420360;23;1371;-82
2024/03/30 00:11:17;;;;;;;;;;;;;;;;;;418412;23;1344;-82
2024/03/30 00:11:27;;;;;;;;;;;;;;;;;;418573;23;954;-82
2024/03/30 00:11:38;;;;;;;;;;;;;;;;;;418374;23;1596;-82
2024/03/30 00:11:48;;;;;;;;;;;;;;;;;;416520;23;1330;-82
2024/03/30 00:11:58;;;;;;;;;;;;;;;;;;412460;24;864;-82
2024/03/30 00:12:11;;;;;;;;;;;;;;;;;;414678;23;962;-82
2024/03/30 00:12:21;;;;;;;;;;;;;;;;;;414657;23;1054;-82
2024/03/30 00:12:31;;;;;;;;;;;;;;;;;;414376;23;1029;-82
2024/03/30 00:12:42;;;;;;;;;;;;;;;;;;412699;24;1062;-82
2024/03/30 00:12:54;;;;;;;;;;;;;;;;;;414523;23;1387;-82
2024/03/30 00:13:07;;;;;;;;;;;;;;;;;;414577;23;880;-82
2024/03/30 00:13:18;;;;;;;;;;;;;;;;;;414599;23;769;-82
2024/03/30 00:13:28;;;;;;;;;;;;;;;;;;418452;23;1382;-82
2024/03/30 00:13:38;;;;;;;;;;;;;;;;;;416615;23;793;-82
2024/03/30 00:13:48;;;;;;;;;;;;;;;;;;414392;23;1463;-82
2024/03/30 00:13:59;;;;;;;;;;;;;;;;;;416473;23;939;-82
2024/03/30 00:14:09;;;;;;;;;;;;;;;;;;416559;23;1034;-82
2024/03/30 00:14:19;;;;;;;;;;;;;;;;;;414540;23;1159;-82
2024/03/30 00:14:29;;;;;;;;;;;;;;;;;;416477;23;1376;-82
2024/03/30 00:14:39;;;;;;;;;;;;;;;;;;416588;23;951;-82
2024/03/30 00:14:50;;;;;;;;;;;;;;;;;;416583;23;1185;-82
2024/03/30 00:15:00;;;;;;;;;;;;;;;;;;414512;23;1273;-82
2024/03/30 00:15:10;;;;;;;;;;;;;;;;;;418504;23;1423;-82
2024/03/30 00:15:20;;;;;;;;;;;;;;;;;;414611;23;959;-82
2024/03/30 00:15:31;;;;;;;;;;;;;;;;;;414654;23;979;-82
2024/03/30 00:15:41;;;;;;;;;;;;;;;;;;414548;23;950;-82
2024/03/30 00:15:51;;;;;;;;;;;;;;;;;;418504;23;1206;-82
2024/03/30 00:16:08;;;;;;;;;;;;;;;;;;418592;23;990;-82
2024/03/30 00:16:18;;;;;;;;;;;;;;;;;;416531;23;1452;-82
2024/03/30 00:16:29;;;;;;;;;;;;;;;;;;416620;23;912;-82
2024/03/30 00:16:39;;;;;;;;;;;;;;;;;;416634;23;812;-82
2024/03/30 00:16:49;;;;;;;;;;;;;;;;;;416497;23;1312;-82
2024/03/30 00:16:59;;;;;;;;;;;;;;;;;;414538;23;1380;-82
2024/03/30 00:17:10;;;;;;;;;;;;;;;;;;414691;23;796;-82
2024/03/30 00:17:20;;;;;;;;;;;;;;;;;;418542;23;820;-82
2024/03/30 00:17:30;;;;;;;;;;;;;;;;;;416509;23;1293;-82
2024/03/30 00:17:40;;;;;;;;;;;;;;;;;;414804;23;963;-82
2024/03/30 00:17:51;;;;;;;;;;;;;;;;;;412746;24;1155;-82
2024/03/30 00:18:01;;;;;;;;;;;;;;;;;;415013;23;1411;-82
2024/03/30 00:18:11;;;;;;;;;;;;;;;;;;418639;23;1379;-82
2024/03/30 00:18:22;;;;;;;;;;;;;;;;;;416703;23;1143;-82
2024/03/30 00:18:32;;;;;;;;;;;;;;;;;;414900;23;880;-82
2024/03/30 00:18:43;;;;;;;;;;;;;;;;;;410943;24;924;-82
2024/03/30 00:18:53;;;;;;;;;;;;;;;;;;414584;23;1331;-82
2024/03/30 00:19:04;;;;;;;;;;;;;;;;;;414597;23;960;-83
2024/03/30 00:19:15;;;;;;;;;;;;;;;;;;414791;23;1002;-83
2024/03/30 00:19:25;;;;;;;;;;;;;;;;;;412921;24;1023;-82
2024/03/30 00:19:39;;;;;;;;;;;;;;;;;;414594;23;971;-82
2024/03/30 00:19:49;;;;;;;;;;;;;;;;;;412667;24;999;-82
2024/03/30 00:19:59;;;;;;;;;;;;;;;;;;412832;24;1002;-82
2024/03/30 00:20:09;;;;;;;;;;;;;;;;;;414542;23;994;-82
2024/03/30 00:20:22;;;;;;;;;;;;;;;;;;414680;23;947;-82
2024/03/30 00:20:32;;;;;;;;;;;;;;;;;;414660;23;1015;-82
2024/03/30 00:20:42;;;;;;;;;;;;;;;;;;414471;23;963;-82
2024/03/30 00:20:52;;;;;;;;;;;;;;;;;;416458;23;1202;-82
2024/03/30 00:21:03;;;;;;;;;;;;;;;;;;418491;23;1257;-82
2024/03/30 00:21:16;;;;;;;;;;;;;;;;;;416495;23;1185;-82
2024/03/30 00:21:26;;;;;;;;;;;;;;;;;;410742;24;1199;-82
2024/03/30 00:21:36;;;;;;;;;;;;;;;;;;412570;24;1202;-82
2024/03/30 00:21:46;;;;;;;;;;;;;;;;;;414815;23;978;-82
2024/03/30 00:21:58;;;;;;;;;;;;;;;;;;416852;23;1254;-82
2024/03/30 00:22:08;;;;;;;;;;;;;;;;;;416569;23;1318;-82
2024/03/30 00:22:18;;;;;;;;;;;;;;;;;;416649;23;1027;-82
2024/03/30 00:22:29;;;;;;;;;;;;;;;;;;416841;23;990;-82
2024/03/30 00:22:40;;;;;;;;;;;;;;;;;;416741;23;1222;-82
2024/03/30 00:22:51;;;;;;;;;;;;;;;;;;416756;23;1183;-82
2024/03/30 00:23:01;;;;;;;;;;;;;;;;;;416630;23;990;-83
2024/03/30 00:23:11;;;;;;;;;;;;;;;;;;416790;23;788;-82
2024/03/30 00:23:22;;;;;;;;;;;;;;;;;;412730;24;1198;-82
2024/03/30 00:23:32;;;;;;;;;;;;;;;;;;414611;23;1173;-82
2024/03/30 00:23:42;;;;;;;;;;;;;;;;;;414658;23;967;-82
2024/03/30 00:23:53;;;;;;;;;;;;;;;;;;416587;23;939;-82
2024/03/30 00:24:03;;;;;;;;;;;;;;;;;;416507;23;1329;-82
2024/03/30 00:24:13;;;;;;;;;;;;;;;;;;416633;23;962;-82
2024/03/30 00:24:23;;;;;;;;;;;;;;;;;;416463;23;1162;-82
2024/03/30 00:24:34;;;;;;;;;;;;;;;;;;416641;23;995;-82
2024/03/30 00:24:44;;;;;;;;;;;;;;;;;;418516;23;1163;-82
2024/03/30 00:24:54;;;;;;;;;;;;;;;;;;418544;23;1033;-82
2024/03/30 00:25:04;;;;;;;;;;;;;;;;;;418535;23;946;-82
2024/03/30 00:25:15;;;;;;;;;;;;;;;;;;414531;23;1182;-82
2024/03/30 00:25:25;;;;;;;;;;;;;;;;;;414620;23;1018;-82
2024/03/30 00:25:35;;;;;;;;;;;;;;;;;;418628;23;1030;-82
2024/03/30 00:25:52;;;;;;;;;;;;;;;;;;418913;23;922;-82
2024/03/30 00:26:03;;;;;;;;;;;;;;;;;;418574;23;820;-82
2024/03/30 00:26:13;;;;;;;;;;;;;;;;;;418866;23;954;-82
2024/03/30 00:26:23;;;;;;;;;;;;;;;;;;420838;23;816;-82
2024/03/30 00:26:33;;;;;;;;;;;;;;;;;;418632;23;943;-82
2024/03/30 00:26:43;;;;;;;;;;;;;;;;;;420837;23;820;-82
2024/03/30 00:26:54;;;;;;;;;;;;;;;;;;418682;23;951;-82
2024/03/30 00:27:04;;;;;;;;;;;;;;;;;;414775;23;1453;-82
2024/03/30 00:27:14;;;;;;;;;;;;;;;;;;418639;23;1449;-82
2024/03/30 00:27:24;;;;;;;;;;;;;;;;;;418613;23;954;-82
2024/03/30 00:27:34;;;;;;;;;;;;;;;;;;418609;23;959;-82
2024/03/30 00:27:44;;;;;;;;;;;;;;;;;;418539;23;1022;-82
2024/03/30 00:27:55;;;;;;;;;;;;;;;;;;418548;23;990;-82
2024/03/30 00:28:05;;;;;;;;;;;;;;;;;;418417;23;1859;-82
2024/03/30 00:28:15;;;;;;;;;;;;;;;;;;418535;23;966;-82
2024/03/30 00:28:25;;;;;;;;;;;;;;;;;;416600;23;1026;-82
2024/03/30 00:28:36;;;;;;;;;;;;;;;;;;414618;23;1009;-82
2024/03/30 00:28:46;;;;;;;;;;;;;;;;;;412793;24;797;-82
2024/03/30 00:28:56;;;;;;;;;;;;;;;;;;414691;23;935;-82
2024/03/30 00:29:06;;;;;;;;;;;;;;;;;;416371;23;1221;-82
2024/03/30 00:29:17;;;;;;;;;;;;;;;;;;418588;23;914;-82
2024/03/30 00:29:27;;;;;;;;;;;;;;;;;;416537;23;1499;-82
2024/03/30 00:29:37;;;;;;;;;;;;;;;;;;416614;23;1054;-82
2024/03/30 00:29:47;;;;;;;;;;;;;;;;;;418558;23;907;-82
2024/03/30 00:29:57;;;;;;;;;;;;;;;;;;418576;23;788;-82
2024/03/30 00:30:08;;;;;;;;;;;;;;;;;;414512;23;1194;-82
2024/03/30 00:30:19;;;;;;;;;;;;;;;;;;412509;24;1294;-82
2024/03/30 00:30:31;;;;;;;;;;;;;;;;;;412669;24;886;-82
2024/03/30 00:30:43;;;;;;;;;;;;;;;;;;414575;23;1271;-82
2024/03/30 00:30:53;;;;;;;;;;;;;;;;;;414512;23;958;-82
2024/03/30 00:31:03;;;;;;;;;;;;;;;;;;416542;23;1320;-82
2024/03/30 00:31:14;;;;;;;;;;;;;;;;;;416637;23;919;-82
2024/03/30 00:31:27;;;;;;;;;;;;;;;;;;416460;23;1158;-82
2024/03/30 00:31:37;;;;;;;;;;;;;;;;;;416515;23;1002;-82
2024/03/30 00:31:48;;;;;;;;;;;;;;;;;;418327;23;1117;-82
2024/03/30 00:31:58;;;;;;;;;;;;;;;;;;418526;23;1013;-82
2024/03/30 00:32:08;;;;;;;;;;;;;;;;;;414458;23;1258;-82
2024/03/30 00:32:19;;;;;;;;;;;;;;;;;;416556;23;1079;-82
2024/03/30 00:32:29;;;;;;;;;;;;;;;;;;414511;23;828;-82
2024/03/30 00:32:39;;;;;;;;;;;;;;;;;;416559;23;1559;-82
2024/03/30 00:32:49;;;;;;;;;;;;;;;;;;416607;23;958;-82
2024/03/30 00:32:59;;;;;;;;;;;;;;;;;;414485;23;1208;-82
2024/03/30 00:33:10;;;;;;;;;;;;;;;;;;414521;23;1042;-82
2024/03/30 00:33:20;;;;;;;;;;;;;;;;;;410822;24;943;-82
2024/03/30 00:33:30;;;;;;;;;;;;;;;;;;410868;24;900;-82
2024/03/30 00:33:41;;;;;;;;;;;;;;;;;;412891;24;883;-82
2024/03/30 00:33:51;;;;;;;;;;;;;;;;;;412804;24;1165;-82
2024/03/30 00:34:01;;;;;;;;;;;;;;;;;;412828;24;788;-82
2024/03/30 00:34:11;;;;;;;;;;;;;;;;;;412842;24;994;-83
2024/03/30 00:34:22;;;;;;;;;;;;;;;;;;412876;24;1030;-82
2024/03/30 00:34:32;;;;;;;;;;;;;;;;;;414737;23;1625;-82
2024/03/30 00:34:42;;;;;;;;;;;;;;;;;;414818;23;793;-82
2024/03/30 00:34:52;;;;;;;;;;;;;;;;;;414823;23;1046;-82
2024/03/30 00:35:03;;;;;;;;;;;;;;;;;;414565;23;1293;-82
2024/03/30 00:35:13;;;;;;;;;;;;;;;;;;414706;23;931;-82
2024/03/30 00:35:24;;;;;;;;;;;;;;;;;;412892;23;1030;-82
2024/03/30 00:35:34;;;;;;;;;;;;;;;;;;411062;24;754;-82
2024/03/30 00:35:45;;;;;;;;;;;;;;;;;;412708;24;1265;-82
2024/03/30 00:35:56;;;;;;;;;;;;;;;;;;412844;23;1070;-82
2024/03/30 00:36:06;;;;;;;;;;;;;;;;;;414823;23;1197;-82
2024/03/30 00:36:16;;;;;;;;;;;;;;;;;;414824;23;974;-82
2024/03/30 00:36:26;;;;;;;;;;;;;;;;;;414769;23;955;-82
2024/03/30 00:36:36;;;;;;;;;;;;;;;;;;416735;23;938;-81
2024/03/30 00:36:47;;;;;;;;;;;;;;;;;;418319;23;1309;-82
2024/03/30 00:36:57;;;;;;;;;;;;;;;;;;416874;23;1046;-82
2024/03/30 00:37:08;;;;;;;;;;;;;;;;;;416749;23;1182;-82
2024/03/30 00:37:18;;;;;;;;;;;;;;;;;;416905;23;975;-82
2024/03/30 00:37:28;;;;;;;;;;;;;;;;;;414755;23;1301;-83
2024/03/30 00:37:38;;;;;;;;;;;;;;;;;;415177;23;994;-82
2024/03/30 00:37:51;;;;;;;;;;;;;;;;;;414975;23;955;-82
2024/03/30 00:38:02;;;;;;;;;;;;;;;;;;416932;23;1304;-82
2024/03/30 00:38:13;;;;;;;;;;;;;;;;;;419049;23;1109;-82
2024/03/30 00:38:24;;;;;;;;;;;;;;;;;;419027;23;1097;-82
2024/03/30 00:38:41;;;;;;;;;;;;;;;;;;416925;23;847;-83
2024/03/30 00:38:51;;;;;;;;;;;;;;;;;;414852;23;1318;-82
2024/03/30 00:39:01;;;;;;;;;;;;;;;;;;415096;23;868;-81
2024/03/30 00:39:14;;;;;;;;;;;;;;;;;;414814;23;784;-82
2024/03/30 00:39:24;;;;;;;;;;;;;;;;;;414889;23;911;-82
2024/03/30 00:39:34;;;;;;;;;;;;;;;;;;412659;24;991;-82
2024/03/30 00:39:44;;;;;;;;;;;;;;;;;;412724;24;999;-82
2024/03/30 00:39:55;;;;;;;;;;;;;;;;;;414536;23;1246;-82
2024/03/30 00:40:06;;;;;;;;;;;;;;;;;;412592;24;1003;-82
2024/03/30 00:40:16;;;;;;;;;;;;;;;;;;412641;24;1640;-82
2024/03/30 00:40:27;;;;;;;;;;;;;;;;;;416477;23;1533;-82
2024/03/30 00:40:37;;;;;;;;;;;;;;;;;;416634;23;1002;-82
2024/03/30 00:40:47;;;;;;;;;;;;;;;;;;412684;24;951;-82
2024/03/30 00:40:57;;;;;;;;;;;;;;;;;;412610;24;1086;-83
2024/03/30 00:41:07;;;;;;;;;;;;;;;;;;412732;24;959;-82
2024/03/30 00:41:18;;;;;;;;;;;;;;;;;;412886;24;1026;-82
2024/03/30 00:41:28;;;;;;;;;;;;;;;;;;416704;23;1034;-82
2024/03/30 00:41:39;;;;;;;;;;;;;;;;;;416942;23;983;-82
2024/03/30 00:41:49;;;;;;;;;;;;;;;;;;414791;23;1662;-82
2024/03/30 00:41:59;;;;;;;;;;;;;;;;;;416984;23;1337;-82
2024/03/30 00:42:09;;;;;;;;;;;;;;;;;;417206;23;986;-82
2024/03/30 00:42:20;;;;;;;;;;;;;;;;;;416889;23;983;-82
2024/03/30 00:42:30;;;;;;;;;;;;;;;;;;417071;23;918;-82
2024/03/30 00:42:40;;;;;;;;;;;;;;;;;;416927;23;1306;-82
2024/03/30 00:42:50;;;;;;;;;;;;;;;;;;416941;23;895;-82
2024/03/30 00:43:01;;;;;;;;;;;;;;;;;;416850;23;1022;-82
2024/03/30 00:43:11;;;;;;;;;;;;;;;;;;414746;23;1014;-82
2024/03/30 00:43:21;;;;;;;;;;;;;;;;;;414592;23;797;-82
2024/03/30 00:43:32;;;;;;;;;;;;;;;;;;416467;23;1595;-82
2024/03/30 00:43:44;;;;;;;;;;;;;;;;;;414676;23;1046;-82
2024/03/30 00:43:54;;;;;;;;;;;;;;;;;;414517;23;1018;-82
2024/03/30 00:44:04;;;;;;;;;;;;;;;;;;418615;23;958;-82
2024/03/30 00:44:15;;;;;;;;;;;;;;;;;;418570;23;946;-83
2024/03/30 00:44:25;;;;;;;;;;;;;;;;;;418583;23;1006;-82
2024/03/30 00:44:35;;;;;;;;;;;;;;;;;;416492;23;1090;-81
2024/03/30 00:44:45;;;;;;;;;;;;;;;;;;412805;24;838;-82
2024/03/30 00:44:55;;;;;;;;;;;;;;;;;;414574;23;986;-83
2024/03/30 00:45:06;;;;;;;;;;;;;;;;;;414626;23;817;-82
2024/03/30 00:45:16;;;;;;;;;;;;;;;;;;414586;23;1007;-82
2024/03/30 00:45:26;;;;;;;;;;;;;;;;;;414642;23;1006;-82
2024/03/30 00:45:40;;;;;;;;;;;;;;;;;;415378;23;967;-82
2024/03/30 00:45:50;;;;;;;;;;;;;;;;;;416565;23;1038;-82
2024/03/30 00:46:01;;;;;;;;;;;;;;;;;;414699;23;994;-82
2024/03/30 00:46:11;;;;;;;;;;;;;;;;;;416495;23;1003;-82
2024/03/30 00:46:21;;;;;;;;;;;;;;;;;;418611;23;1450;-82
2024/03/30 00:46:31;;;;;;;;;;;;;;;;;;418580;23;1272;-82
2024/03/30 00:46:42;;;;;;;;;;;;;;;;;;416793;23;1033;-82
2024/03/30 00:46:52;;;;;;;;;;;;;;;;;;416687;23;896;-82
2024/03/30 00:47:03;;;;;;;;;;;;;;;;;;414649;23;983;-82
2024/03/30 00:47:15;;;;;;;;;;;;;;;;;;414599;23;1313;-82
2024/03/30 00:47:25;;;;;;;;;;;;;;;;;;414637;23;967;-82
2024/03/30 00:47:35;;;;;;;;;;;;;;;;;;412725;24;975;-82
2024/03/30 00:47:45;;;;;;;;;;;;;;;;;;412638;24;793;-82
2024/03/30 00:47:56;;;;;;;;;;;;;;;;;;414651;23;843;-82
2024/03/30 00:48:06;;;;;;;;;;;;;;;;;;414536;23;1924;-82
2024/03/30 00:48:16;;;;;;;;;;;;;;;;;;414375;23;923;-82
2024/03/30 00:48:27;;;;;;;;;;;;;;;;;;412572;24;1269;-82
2024/03/30 00:48:37;;;;;;;;;;;;;;;;;;414404;23;1432;-82
2024/03/30 00:48:47;;;;;;;;;;;;;;;;;;414562;23;931;-82
2024/03/30 00:48:57;;;;;;;;;;;;;;;;;;414512;23;1188;-82
2024/03/30 00:49:08;;;;;;;;;;;;;;;;;;414660;23;971;-82
2024/03/30 00:49:18;;;;;;;;;;;;;;;;;;414491;23;1149;-82
2024/03/30 00:49:28;;;;;;;;;;;;;;;;;;416425;23;1169;-82
2024/03/30 00:49:38;;;;;;;;;;;;;;;;;;416664;23;958;-82
2024/03/30 00:49:48;;;;;;;;;;;;;;;;;;414546;23;981;-82
2024/03/30 00:49:59;;;;;;;;;;;;;;;;;;414492;23;973;-82
2024/03/30 00:50:09;;;;;;;;;;;;;;;;;;418547;23;1016;-82
2024/03/30 00:50:19;;;;;;;;;;;;;;;;;;418523;23;791;-82
2024/03/30 00:50:29;;;;;;;;;;;;;;;;;;416465;23;1162;-82
2024/03/30 00:50:40;;;;;;;;;;;;;;;;;;414497;23;1298;-82
2024/03/30 00:50:53;;;;;;;;;;;;;;;;;;414616;23;724;-82
2024/03/30 00:51:03;;;;;;;;;;;;;;;;;;414137;23;982;-81
2024/03/30 00:51:13;;;;;;;;;;;;;;;;;;416635;23;970;-81
2024/03/30 00:51:23;;;;;;;;;;;;;;;;;;420284;23;1268;-81
2024/03/30 00:51:34;;;;;;;;;;;;;;;;;;418407;23;1349;-81
2024/03/30 00:51:44;;;;;;;;;;;;;;;;;;416520;23;981;-81
2024/03/30 00:51:54;;;;;;;;;;;;;;;;;;416566;23;799;-81
2024/03/30 00:52:04;;;;;;;;;;;;;;;;;;416613;23;974;-81
2024/03/30 00:52:15;;;;;;;;;;;;;;;;;;410672;24;1417;-81
2024/03/30 00:52:25;;;;;;;;;;;;;;;;;;412429;24;1178;-82
2024/03/30 00:52:35;;;;;;;;;;;;;;;;;;412664;24;1068;-82
2024/03/30 00:52:46;;;;;;;;;;;;;;;;;;412579;24;800;-82
2024/03/30 00:52:56;;;;;;;;;;;;;;;;;;414683;23;942;-82
2024/03/30 00:53:06;;;;;;;;;;;;;;;;;;414539;23;977;-82
2024/03/30 00:53:16;;;;;;;;;;;;;;;;;;414632;23;985;-82
2024/03/30 00:53:27;;;;;;;;;;;;;;;;;;412747;24;773;-82
2024/03/30 00:53:37;;;;;;;;;;;;;;;;;;412480;24;1005;-82
2024/03/30 00:53:47;;;;;;;;;;;;;;;;;;414468;23;1434;-82
2024/03/30 00:53:57;;;;;;;;;;;;;;;;;;414310;23;1002;-81
2024/03/30 00:54:07;;;;;;;;;;;;;;;;;;412547;24;856;-82
2024/03/30 00:54:18;;;;;;;;;;;;;;;;;;414360;23;1340;-81
2024/03/30 00:54:28;;;;;;;;;;;;;;;;;;412608;24;966;-82
2024/03/30 00:54:38;;;;;;;;;;;;;;;;;;412590;24;1025;-82
2024/03/30 00:54:48;;;;;;;;;;;;;;;;;;416473;23;1158;-82
2024/03/30 00:54:59;;;;;;;;;;;;;;;;;;416545;23;807;-82
2024/03/30 00:55:09;;;;;;;;;;;;;;;;;;418531;23;827;-82
2024/03/30 00:55:19;;;;;;;;;;;;;;;;;;418434;23;1001;-82
2024/03/30 00:55:30;;;;;;;;;;;;;;;;;;418586;23;950;-82
2024/03/30 00:55:40;;;;;;;;;;;;;;;;;;420469;23;842;-82
2024/03/30 00:55:57;;;;;;;;;;;;;;;;;;418545;23;965;-82
2024/03/30 00:56:07;;;;;;;;;;;;;;;;;;416483;23;831;-82
2024/03/30 00:56:17;;;;;;;;;;;;;;;;;;416434;23;974;-82
2024/03/30 00:56:29;;;;;;;;;;;;;;;;;;412580;24;1204;-82
2024/03/30 00:56:40;;;;;;;;;;;;;;;;;;414586;23;970;-82
2024/03/30 00:56:50;;;;;;;;;;;;;;;;;;412751;24;907;-82
2024/03/30 00:57:00;;;;;;;;;;;;;;;;;;412520;24;966;-82
2024/03/30 00:57:11;;;;;;;;;;;;;;;;;;414620;23;942;-82
2024/03/30 00:57:21;;;;;;;;;;;;;;;;;;416611;23;855;-82
2024/03/30 00:57:31;;;;;;;;;;;;;;;;;;420572;23;1001;-82
2024/03/30 00:57:42;;;;;;;;;;;;;;;;;;420271;23;930;-82
2024/03/30 00:57:52;;;;;;;;;;;;;;;;;;416443;23;1170;-82
2024/03/30 00:58:03;;;;;;;;;;;;;;;;;;418352;23;1151;-82
2024/03/30 00:58:13;;;;;;;;;;;;;;;;;;414565;23;942;-82
2024/03/30 00:58:23;;;;;;;;;;;;;;;;;;414441;23;990;-82
2024/03/30 00:58:33;;;;;;;;;;;;;;;;;;416388;23;1254;-82
2024/03/30 00:58:44;;;;;;;;;;;;;;;;;;416396;23;1197;-82
2024/03/30 00:58:54;;;;;;;;;;;;;;;;;;418524;23;1289;-82
2024/03/30 00:59:05;;;;;;;;;;;;;;;;;;414465;23;1070;-82
2024/03/30 00:59:15;;;;;;;;;;;;;;;;;;414606;23;1065;-82
2024/03/30 00:59:25;;;;;;;;;;;;;;;;;;414549;23;977;-82
2024/03/30 00:59:36;;;;;;;;;;;;;;;;;;414527;23;1353;-82
2024/03/30 00:59:47;;;;;;;;;;;;;;;;;;414542;23;1017;-82
2024/03/30 00:59:57;;;;;;;;;;;;;;;;;;416449;23;1171;-82
2024/03/30 01:00:10;;;;;;;;;;;;;;;;;;416448;23;974;-82
2024/03/30 01:00:21;;;;;;;;;;;;;;;;;;418531;23;906;-82
2024/03/30 01:00:31;;;;;;;;;;;;;;;;;;418243;23;1359;-82
2024/03/30 01:00:41;;;;;;;;;;;;;;;;;;412532;23;1320;-82
2024/03/30 01:00:52;;;;;;;;;;;;;;;;;;412577;24;1325;-82
2024/03/30 01:01:03;;;;;;;;;;;;;;;;;;414500;23;768;-82
2024/03/30 01:01:16;;;;;;;;;;;;;;;;;;414292;23;910;-82
2024/03/30 01:01:27;;;;;;;;;;;;;;;;;;412693;24;965;-82
2024/03/30 01:01:37;;;;;;;;;;;;;;;;;;410759;24;989;-82
2024/03/30 01:01:48;;;;;;;;;;;;;;;;;;412669;24;1195;-82
2024/03/30 01:01:58;;;;;;;;;;;;;;;;;;412564;23;1173;-82
2024/03/30 01:02:08;;;;;;;;;;;;;;;;;;412693;23;991;-82
2024/03/30 01:02:18;;;;;;;;;;;;;;;;;;412516;24;1173;-82
2024/03/30 01:02:28;;;;;;;;;;;;;;;;;;412600;24;1006;-82
2024/03/30 01:02:39;;;;;;;;;;;;;;;;;;412705;24;990;-82
2024/03/30 01:02:50;;;;;;;;;;;;;;;;;;414366;23;1297;-82
2024/03/30 01:03:00;;;;;;;;;;;;;;;;;;414449;23;1301;-82
2024/03/30 01:03:10;;;;;;;;;;;;;;;;;;414491;23;1224;-82
2024/03/30 01:03:20;;;;;;;;;;;;;;;;;;414549;23;989;-81
2024/03/30 01:03:31;;;;;;;;;;;;;;;;;;414486;23;1203;-82
2024/03/30 01:03:41;;;;;;;;;;;;;;;;;;414490;23;1278;-82
2024/03/30 01:03:51;;;;;;;;;;;;;;;;;;416579;23;1021;-82
2024/03/30 01:04:03;;;;;;;;;;;;;;;;;;414370;23;1274;-81
2024/03/30 01:04:13;;;;;;;;;;;;;;;;;;416477;23;1494;-82
2024/03/30 01:04:24;;;;;;;;;;;;;;;;;;418442;23;1021;-82
2024/03/30 01:04:34;;;;;;;;;;;;;;;;;;418520;23;989;-82
2024/03/30 01:04:45;;;;;;;;;;;;;;;;;;414453;23;1197;-82
2024/03/30 01:04:55;;;;;;;;;;;;;;;;;;414646;23;887;-82
2024/03/30 01:05:06;;;;;;;;;;;;;;;;;;416517;23;804;-82
2024/03/30 01:05:17;;;;;;;;;;;;;;;;;;414551;23;946;-82
2024/03/30 01:05:28;;;;;;;;;;;;;;;;;;414632;23;1005;-82
2024/03/30 01:05:38;;;;;;;;;;;;;;;;;;416488;23;1033;-82
2024/03/30 01:05:48;;;;;;;;;;;;;;;;;;418338;23;1402;-82
2024/03/30 01:05:58;;;;;;;;;;;;;;;;;;414624;23;1009;-82
2024/03/30 01:06:08;;;;;;;;;;;;;;;;;;414366;23;1307;-82
2024/03/30 01:06:19;;;;;;;;;;;;;;;;;;414646;23;966;-82
2024/03/30 01:06:29;;;;;;;;;;;;;;;;;;414626;23;1002;-82
2024/03/30 01:06:40;;;;;;;;;;;;;;;;;;414587;23;1017;-82
2024/03/30 01:06:50;;;;;;;;;;;;;;;;;;416364;23;946;-82
2024/03/30 01:07:02;;;;;;;;;;;;;;;;;;416536;23;945;-82
2024/03/30 01:07:13;;;;;;;;;;;;;;;;;;416504;23;997;-82
2024/03/30 01:07:23;;;;;;;;;;;;;;;;;;416614;23;986;-82
2024/03/30 01:07:33;;;;;;;;;;;;;;;;;;414528;23;1030;-82
2024/03/30 01:07:44;;;;;;;;;;;;;;;;;;414446;23;978;-82
2024/03/30 01:07:54;;;;;;;;;;;;;;;;;;414633;23;962;-82
2024/03/30 01:08:04;;;;;;;;;;;;;;;;;;416474;23;1927;-81
2024/03/30 01:08:14;;;;;;;;;;;;;;;;;;413996;23;1284;-82
2024/03/30 01:08:25;;;;;;;;;;;;;;;;;;418415;23;1395;-82
2024/03/30 01:08:35;;;;;;;;;;;;;;;;;;418512;23;930;-82
2024/03/30 01:08:45;;;;;;;;;;;;;;;;;;414514;23;1204;-82
2024/03/30 01:08:55;;;;;;;;;;;;;;;;;;416602;23;1018;-82
2024/03/30 01:09:07;;;;;;;;;;;;;;;;;;414570;23;895;-82
2024/03/30 01:09:18;;;;;;;;;;;;;;;;;;412435;24;1629;-81
2024/03/30 01:09:28;;;;;;;;;;;;;;;;;;414584;23;978;-81
2024/03/30 01:09:38;;;;;;;;;;;;;;;;;;414512;23;1316;-82
2024/03/30 01:09:48;;;;;;;;;;;;;;;;;;414614;23;946;-82
2024/03/30 01:09:59;;;;;;;;;;;;;;;;;;414525;23;903;-82
2024/03/30 01:10:12;;;;;;;;;;;;;;;;;;414597;23;1718;-82
2024/03/30 01:10:23;;;;;;;;;;;;;;;;;;418473;23;978;-82
2024/03/30 01:10:33;;;;;;;;;;;;;;;;;;416478;23;1286;-82
2024/03/30 01:10:43;;;;;;;;;;;;;;;;;;418174;23;1315;-82
2024/03/30 01:10:59;;;;;;;;;;;;;;;;;;416361;23;1337;-82
2024/03/30 01:11:10;;;;;;;;;;;;;;;;;;416536;23;974;-82
2024/03/30 01:11:20;;;;;;;;;;;;;;;;;;418385;23;1009;-82
2024/03/30 01:11:30;;;;;;;;;;;;;;;;;;418535;23;1012;-82
2024/03/30 01:11:41;;;;;;;;;;;;;;;;;;414231;23;1211;-81
2024/03/30 01:11:52;;;;;;;;;;;;;;;;;;414528;23;955;-81
2024/03/30 01:12:02;;;;;;;;;;;;;;;;;;414596;23;990;-82
2024/03/30 01:12:12;;;;;;;;;;;;;;;;;;416443;23;1275;-82
2024/03/30 01:12:24;;;;;;;;;;;;;;;;;;416593;23;962;-82
2024/03/30 01:12:34;;;;;;;;;;;;;;;;;;416493;23;1006;-82
2024/03/30 01:12:44;;;;;;;;;;;;;;;;;;416363;23;1617;-82
2024/03/30 01:12:55;;;;;;;;;;;;;;;;;;416603;23;1017;-82
2024/03/30 01:13:05;;;;;;;;;;;;;;;;;;418368;23;1170;-82
2024/03/30 01:13:16;;;;;;;;;;;;;;;;;;416426;23;1276;-82
2024/03/30 01:13:26;;;;;;;;;;;;;;;;;;416512;23;989;-82
2024/03/30 01:13:37;;;;;;;;;;;;;;;;;;416545;23;1001;-82
2024/03/30 01:13:47;;;;;;;;;;;;;;;;;;414382;23;1352;-82
2024/03/30 01:13:57;;;;;;;;;;;;;;;;;;414452;23;1282;-82
2024/03/30 01:14:08;;;;;;;;;;;;;;;;;;414510;23;1164;-82
2024/03/30 01:14:21;;;;;;;;;;;;;;;;;;414593;23;1242;-82
2024/03/30 01:14:33;;;;;;;;;;;;;;;;;;416438;23;1441;-82
2024/03/30 01:14:43;;;;;;;;;;;;;;;;;;416450;23;1431;-82
2024/03/30 01:14:54;;;;;;;;;;;;;;;;;;416545;23;847;-82
2024/03/30 01:15:05;;;;;;;;;;;;;;;;;;414543;23;1296;-82
2024/03/30 01:15:15;;;;;;;;;;;;;;;;;;416075;23;1170;-82